createdAt,value
2019-05-10T00:00:46.257Z,5.73
2019-05-10T00:03:32.543Z,6.47
2019-05-10T00:06:18.879Z,5.70
2019-05-10T00:08:47.236Z,5.97
2019-05-10T00:11:19.787Z,5.47
2019-05-10T00:13:55.823Z,5.20
2019-05-10T00:16:26.046Z,5.40
2019-05-10T00:18:55.010Z,5.57
2019-05-10T00:21:23.711Z,6.90
2019-05-10T00:23:52.712Z,6.70
2019-05-10T00:26:21.385Z,5.80
2019-05-10T00:28:50.118Z,5.47
2019-05-10T00:31:18.802Z,5.93
2019-05-10T00:33:47.482Z,6.30
2019-05-10T00:36:16.181Z,6.60
2019-05-10T00:38:44.858Z,7.60
2019-05-10T00:41:13.623Z,5.67
2019-05-10T00:43:42.568Z,5.23
2019-05-10T00:46:11.286Z,6.10
2019-05-10T00:48:40.076Z,6.40
2019-05-10T00:51:08.794Z,5.03
2019-05-10T00:53:37.430Z,6.10
2019-05-10T00:56:06.320Z,5.30
2019-05-10T00:58:34.992Z,6.40
2019-05-10T01:01:03.737Z,5.23
2019-05-10T01:03:32.445Z,5.17
2019-05-10T01:06:01.107Z,4.80
2019-05-10T01:08:29.792Z,5.00
2019-05-10T01:10:58.476Z,4.20
2019-05-10T01:13:27.142Z,4.03
2019-05-10T01:15:55.800Z,5.30
2019-05-10T01:18:24.506Z,4.33
2019-05-10T01:20:53.194Z,3.90
2019-05-10T01:23:21.894Z,4.63
2019-05-10T01:25:50.573Z,5.20
2019-05-10T01:28:19.241Z,4.27
2019-05-10T01:30:48.267Z,4.60
2019-05-10T01:33:16.949Z,4.63
2019-05-10T01:35:45.621Z,5.23
2019-05-10T01:38:14.440Z,4.37
2019-05-10T01:40:43.084Z,5.27
2019-05-10T01:43:11.768Z,4.93
2019-05-10T01:45:40.447Z,4.83
2019-05-10T01:48:09.129Z,4.57
2019-05-10T01:50:37.919Z,4.50
2019-05-10T01:53:06.626Z,4.67
2019-05-10T01:55:50.900Z,5.10
2019-05-10T01:58:05.874Z,5.27
2019-05-10T02:00:34.563Z,4.80
2019-05-10T02:03:03.242Z,4.80
2019-05-10T02:05:31.906Z,4.80
2019-05-10T02:08:00.626Z,5.03
2019-05-10T02:10:29.274Z,4.90
2019-05-10T02:12:57.987Z,5.77
2019-05-10T02:15:26.649Z,5.63
2019-05-10T02:17:55.373Z,5.47
2019-05-10T02:20:24.289Z,5.73
2019-05-10T02:22:52.948Z,9.27
2019-05-10T02:25:21.669Z,5.40
2019-05-10T02:27:50.398Z,6.40
2019-05-10T02:30:19.511Z,5.63
2019-05-10T02:32:48.323Z,5.93
2019-05-10T02:35:17.023Z,5.03
2019-05-10T02:37:45.728Z,6.10
2019-05-10T02:40:14.917Z,5.73
2019-05-10T02:42:43.907Z,4.67
2019-05-10T02:45:13.095Z,5.00
2019-05-10T02:47:41.787Z,6.70
2019-05-10T02:50:10.830Z,6.10
2019-05-10T02:52:39.500Z,5.20
2019-05-10T02:55:08.415Z,5.50
2019-05-10T02:57:37.782Z,6.03
2019-05-10T03:00:07.857Z,5.50
2019-05-10T03:02:38.368Z,5.33
2019-05-10T03:05:07.665Z,4.83
2019-05-10T03:07:38.505Z,5.60
2019-05-10T03:10:12.660Z,5.37
2019-05-10T03:12:42.050Z,5.07
2019-05-10T03:15:14.718Z,4.90
2019-05-10T03:17:43.426Z,6.40
2019-05-10T03:20:12.635Z,6.13
2019-05-10T03:22:44.789Z,5.70
2019-05-10T03:25:16.279Z,6.30
2019-05-10T03:27:44.955Z,5.60
2019-05-10T03:30:14.005Z,6.30
2019-05-10T03:32:43.373Z,6.20
2019-05-10T03:35:12.207Z,6.30
2019-05-10T03:37:40.991Z,6.93
2019-05-10T03:40:10.114Z,6.20
2019-05-10T03:42:38.771Z,5.97
2019-05-10T03:45:08.155Z,6.70
2019-05-10T03:47:37.264Z,6.80
2019-05-10T03:50:07.741Z,6.10
2019-05-10T03:52:36.539Z,7.20
2019-05-10T03:55:08.409Z,7.93
2019-05-10T03:57:37.073Z,6.97
2019-05-10T04:00:07.840Z,6.00
2019-05-10T04:02:36.513Z,7.33
2019-05-10T04:05:07.448Z,7.07
2019-05-10T04:07:36.236Z,6.60
2019-05-10T04:10:06.549Z,7.07
2019-05-10T04:12:35.239Z,7.23
2019-05-10T04:15:06.118Z,7.40
2019-05-10T04:17:34.809Z,7.70
2019-05-10T04:20:05.285Z,6.70
2019-05-10T04:22:33.993Z,7.70
2019-05-10T04:25:04.072Z,6.90
2019-05-10T04:27:33.282Z,7.57
2019-05-10T04:30:02.308Z,6.57
2019-05-10T04:32:31.077Z,7.17
2019-05-10T04:34:59.744Z,7.10
2019-05-10T04:37:28.438Z,7.00
2019-05-10T04:39:57.118Z,6.40
2019-05-10T04:42:25.996Z,6.67
2019-05-10T04:44:55.060Z,7.40
2019-05-10T04:47:23.813Z,7.30
2019-05-10T04:49:52.678Z,7.60
2019-05-10T04:52:21.408Z,7.17
2019-05-10T04:54:50.094Z,6.60
2019-05-10T04:57:18.843Z,6.07
2019-05-10T04:59:47.548Z,6.17
2019-05-10T05:02:21.314Z,6.77
2019-05-10T05:04:47.018Z,6.83
2019-05-10T05:07:15.700Z,5.93
2019-05-10T05:09:44.426Z,6.37
2019-05-10T05:12:13.103Z,7.27
2019-05-10T05:14:41.755Z,7.63
2019-05-10T05:17:10.732Z,7.20
2019-05-10T05:19:40.924Z,8.13
2019-05-10T05:22:09.947Z,8.53
2019-05-10T05:24:38.759Z,9.17
2019-05-10T05:27:07.427Z,9.00
2019-05-10T05:29:37.188Z,8.67
2019-05-10T05:32:05.888Z,10.10
2019-05-10T05:34:34.599Z,9.90
2019-05-10T05:37:03.293Z,11.47
2019-05-10T05:39:31.980Z,11.33
2019-05-10T05:42:00.687Z,11.83
2019-05-10T05:44:29.418Z,12.93
2019-05-10T05:46:58.377Z,12.93
2019-05-10T05:49:27.108Z,13.27
2019-05-10T05:51:55.800Z,14.20
2019-05-10T05:54:24.491Z,13.07
2019-05-10T05:56:53.354Z,13.53
2019-05-10T05:59:25.931Z,15.40
2019-05-10T06:01:52.736Z,12.97
2019-05-10T06:04:21.554Z,14.73
2019-05-10T06:06:53.731Z,15.77
2019-05-10T06:09:20.992Z,14.83
2019-05-10T06:11:50.042Z,14.27
2019-05-10T06:14:18.870Z,15.20
2019-05-10T06:16:51.137Z,14.77
2019-05-10T06:19:19.864Z,14.30
2019-05-10T06:21:48.710Z,16.00
2019-05-10T06:24:17.516Z,15.83
2019-05-10T06:26:46.194Z,15.17
2019-05-10T06:29:17.686Z,15.60
2019-05-10T06:31:47.114Z,17.40
2019-05-10T06:34:15.806Z,15.40
2019-05-10T06:36:44.547Z,15.70
2019-05-10T06:39:13.231Z,16.90
2019-05-10T06:41:41.930Z,15.83
2019-05-10T06:44:10.685Z,16.10
2019-05-10T06:46:39.415Z,16.33
2019-05-10T06:49:10.712Z,17.10
2019-05-10T06:51:42.883Z,18.03
2019-05-10T06:54:08.952Z,17.13
2019-05-10T06:56:37.690Z,17.50
2019-05-10T06:59:13.342Z,17.53
2019-05-10T07:01:38.190Z,18.33
2019-05-10T07:04:07.250Z,18.70
2019-05-10T07:06:36.039Z,16.83
2019-05-10T07:09:06.623Z,15.90
2019-05-10T07:11:37.034Z,17.50
2019-05-10T07:14:05.890Z,16.77
2019-05-10T07:16:35.790Z,17.17
2019-05-10T07:19:06.383Z,18.53
2019-05-10T07:21:39.113Z,19.20
2019-05-10T07:24:05.535Z,19.00
2019-05-10T07:26:34.217Z,17.23
2019-05-10T07:29:02.946Z,18.63
2019-05-10T07:31:31.634Z,18.37
2019-05-10T07:34:00.723Z,18.90
2019-05-10T07:36:30.626Z,16.30
2019-05-10T07:39:02.743Z,18.80
2019-05-10T07:41:30.569Z,17.27
2019-05-10T07:44:05.298Z,17.97
2019-05-10T07:46:29.761Z,17.13
2019-05-10T07:48:58.496Z,16.70
2019-05-10T07:51:28.677Z,17.73
2019-05-10T07:54:04.796Z,17.80
2019-05-10T07:56:28.122Z,16.53
2019-05-10T07:59:00.299Z,16.97
2019-05-10T08:01:32.157Z,17.17
2019-05-10T08:03:59.182Z,18.70
2019-05-10T08:06:31.974Z,18.30
2019-05-10T08:09:01.867Z,17.67
2019-05-10T08:11:29.250Z,17.57
2019-05-10T08:14:06.243Z,16.40
2019-05-10T08:16:29.042Z,17.77
2019-05-10T08:19:00.922Z,17.20
2019-05-10T08:21:28.592Z,17.80
2019-05-10T08:23:59.035Z,17.20
2019-05-10T08:26:27.782Z,14.70
2019-05-10T08:28:57.966Z,16.50
2019-05-10T08:31:33.848Z,13.30
2019-05-10T08:33:59.002Z,14.33
2019-05-10T08:36:28.057Z,13.97
2019-05-10T08:39:06.999Z,13.00
2019-05-10T08:41:27.194Z,13.10
2019-05-10T08:43:55.866Z,14.17
2019-05-10T08:46:34.823Z,14.00
2019-05-10T08:48:55.090Z,13.27
2019-05-10T08:51:23.805Z,13.10
2019-05-10T08:53:57.967Z,15.87
2019-05-10T08:56:24.157Z,18.97
2019-05-10T08:58:53.818Z,17.37
2019-05-10T09:01:29.959Z,17.40
2019-05-10T09:03:59.345Z,17.47
2019-05-10T09:06:24.904Z,17.57
2019-05-10T09:09:01.463Z,16.10
2019-05-10T09:11:24.209Z,14.93
2019-05-10T09:13:53.893Z,15.03
2019-05-10T09:16:29.149Z,13.93
2019-05-10T09:18:55.071Z,14.60
2019-05-10T09:21:23.747Z,12.57
2019-05-10T09:24:01.040Z,11.83
2019-05-10T09:26:22.909Z,12.00
2019-05-10T09:28:55.498Z,12.53
2019-05-10T09:31:25.721Z,12.27
2019-05-10T09:33:54.464Z,11.43
2019-05-10T09:36:31.256Z,10.83
2019-05-10T09:38:55.351Z,9.13
2019-05-10T09:41:27.819Z,10.50
2019-05-10T09:43:54.834Z,8.40
2019-05-10T09:46:23.540Z,8.37
2019-05-10T09:48:54.688Z,8.40
2019-05-10T09:51:27.880Z,7.87
2019-05-10T09:53:53.167Z,8.17
2019-05-10T09:56:21.875Z,6.97
2019-05-10T09:58:50.591Z,6.40
2019-05-10T10:01:21.791Z,4.90
2019-05-10T10:03:49.971Z,4.47
2019-05-10T10:06:20.353Z,5.50
2019-05-10T10:08:53.189Z,4.37
2019-05-10T10:11:19.589Z,4.13
2019-05-10T10:13:58.598Z,3.90
2019-05-10T10:16:19.261Z,3.63
2019-05-10T10:18:48.066Z,3.17
2019-05-10T10:21:18.988Z,4.80
2019-05-10T10:23:47.462Z,4.07
2019-05-10T10:26:20.391Z,4.27
2019-05-10T10:28:49.700Z,3.53
2019-05-10T10:31:28.880Z,4.07
2019-05-10T10:33:57.009Z,3.90
2019-05-10T10:36:17.969Z,3.50
2019-05-10T10:38:49.459Z,3.87
2019-05-10T10:41:25.654Z,2.93
2019-05-10T10:43:48.391Z,4.10
2019-05-10T10:46:19.736Z,4.13
2019-05-10T10:48:49.047Z,5.67
2019-05-10T10:51:18.424Z,3.97
2019-05-10T10:53:47.215Z,4.00
2019-05-10T10:56:17.609Z,3.97
2019-05-10T10:58:49.633Z,3.00
2019-05-10T11:01:24.675Z,4.10
2019-05-10T11:03:49.042Z,4.33
2019-05-10T11:06:18.009Z,5.40
2019-05-10T11:08:46.722Z,3.33
2019-05-10T11:11:15.735Z,3.60
2019-05-10T11:13:46.301Z,3.80
2019-05-10T11:16:15.674Z,3.53
2019-05-10T11:18:44.735Z,3.90
2019-05-10T11:21:13.420Z,3.87
2019-05-10T11:23:42.233Z,4.00
2019-05-10T11:26:11.215Z,4.47
2019-05-10T11:28:44.239Z,4.23
2019-05-10T11:31:11.346Z,4.27
2019-05-10T11:33:41.473Z,4.60
2019-05-10T11:36:11.417Z,5.43
2019-05-10T11:38:42.041Z,3.90
2019-05-10T11:41:13.587Z,4.33
2019-05-10T11:43:41.899Z,5.20
2019-05-10T11:46:11.735Z,4.70
2019-05-10T11:48:42.221Z,6.60
2019-05-10T11:51:17.232Z,6.73
2019-05-10T11:53:41.881Z,6.90
2019-05-10T11:56:14.119Z,7.50
2019-05-10T11:59:04.404Z,8.40
2019-05-10T12:01:19.059Z,7.50
2019-05-10T12:03:43.759Z,7.60
2019-05-10T12:06:12.680Z,6.80
2019-05-10T12:08:41.971Z,7.40
2019-05-10T12:11:27.254Z,8.53
2019-05-10T12:13:41.370Z,9.20
2019-05-10T12:16:12.347Z,8.53
2019-05-10T12:18:46.508Z,9.00
2019-05-10T12:21:11.392Z,9.00
2019-05-10T12:23:49.416Z,8.40
2019-05-10T12:28:41.009Z,7.73
2019-05-10T12:31:15.186Z,7.40
2019-05-10T12:33:42.972Z,9.33
2019-05-10T12:36:22.110Z,8.67
2019-05-10T12:38:41.361Z,8.83
2019-05-10T12:41:10.054Z,8.33
2019-05-10T12:43:43.155Z,10.53
2019-05-10T12:46:10.475Z,10.07
2019-05-10T12:48:39.496Z,10.53
2019-05-10T12:51:11.888Z,10.63
2019-05-10T12:53:44.596Z,10.47
2019-05-10T12:56:09.163Z,9.90
2019-05-10T12:58:37.879Z,11.20
2019-05-10T13:01:06.684Z,10.93
2019-05-10T13:03:35.395Z,11.03
2019-05-10T13:06:04.261Z,10.27
2019-05-10T13:08:33.022Z,10.77
2019-05-10T13:11:01.703Z,11.13
2019-05-10T13:13:30.416Z,9.97
2019-05-10T13:16:03.482Z,10.33
2019-05-10T13:21:00.002Z,10.23
2019-05-10T13:23:28.759Z,8.53
2019-05-10T13:25:57.423Z,9.40
2019-05-10T13:28:26.113Z,9.50
2019-05-10T13:30:59.688Z,10.60
2019-05-10T13:33:28.861Z,9.80
2019-05-10T13:35:56.722Z,10.37
2019-05-10T13:38:26.071Z,10.10
2019-05-10T13:40:54.748Z,9.60
2019-05-10T13:43:26.545Z,11.23
2019-05-10T13:45:54.159Z,10.40
2019-05-10T13:48:26.177Z,8.83
2019-05-10T13:50:53.243Z,10.23
2019-05-10T13:53:23.257Z,7.80
2019-05-10T13:55:52.089Z,7.63
2019-05-10T13:58:20.765Z,8.83
2019-05-10T14:00:49.508Z,8.20
2019-05-10T14:03:18.281Z,7.80
2019-05-10T14:05:46.953Z,8.07
2019-05-10T14:08:15.630Z,8.00
2019-05-10T14:10:44.519Z,7.53
2019-05-10T14:13:16.666Z,8.20
2019-05-10T14:15:43.606Z,10.33
2019-05-10T14:18:12.348Z,7.40
2019-05-10T14:20:41.243Z,7.70
2019-05-10T14:23:09.947Z,7.17
2019-05-10T14:25:39.172Z,8.00
2019-05-10T14:28:09.625Z,6.87
2019-05-10T14:30:38.732Z,7.13
2019-05-10T14:33:08.630Z,8.17
2019-05-10T14:35:37.817Z,6.30
2019-05-10T14:38:08.413Z,6.50
2019-05-10T14:40:38.095Z,7.43
2019-05-10T14:43:06.971Z,8.10
2019-05-10T14:45:35.657Z,6.90
2019-05-10T14:48:04.652Z,7.80
2019-05-10T14:50:33.358Z,7.90
2019-05-10T14:53:02.057Z,6.77
2019-05-10T14:55:34.689Z,6.73
2019-05-10T14:58:01.314Z,7.63
2019-05-10T15:00:30.083Z,6.93
2019-05-10T15:03:02.164Z,6.80
2019-05-10T15:05:29.216Z,6.63
2019-05-10T15:07:57.912Z,7.03
2019-05-10T15:10:26.609Z,7.00
2019-05-10T15:12:55.349Z,6.73
2019-05-10T15:15:24.189Z,6.60
2019-05-10T15:17:55.118Z,7.43
2019-05-10T15:20:23.379Z,6.70
2019-05-10T15:22:52.199Z,4.93
2019-05-10T15:25:20.882Z,3.03
2019-05-10T15:27:49.606Z,3.37
2019-05-10T15:30:18.296Z,3.30
2019-05-10T15:32:46.976Z,2.97
2019-05-10T15:35:15.717Z,3.63
2019-05-10T15:37:46.389Z,3.60
2019-05-10T15:40:15.165Z,2.93
2019-05-10T15:42:43.870Z,2.90
2019-05-10T15:45:14.457Z,3.30
2019-05-10T15:47:51.282Z,3.33
2019-05-10T15:50:14.007Z,3.00
2019-05-10T15:52:46.514Z,3.73
2019-05-10T15:55:17.092Z,4.27
2019-05-10T15:57:44.051Z,5.30
2019-05-10T16:00:12.766Z,4.30
2019-05-10T16:02:41.456Z,3.97
2019-05-10T16:05:23.896Z,7.47
2019-05-10T16:07:40.667Z,3.57
2019-05-10T16:10:09.753Z,4.43
2019-05-10T16:12:43.052Z,3.40
2019-05-10T16:15:13.916Z,3.40
2019-05-10T16:17:39.808Z,4.33
2019-05-10T16:20:09.409Z,4.30
2019-05-10T16:22:38.112Z,4.60
2019-05-10T16:25:07.397Z,3.80
2019-05-10T16:27:40.465Z,4.10
2019-05-10T16:30:11.886Z,4.03
2019-05-10T16:32:38.369Z,4.30
2019-05-10T16:35:12.593Z,3.90
2019-05-10T16:37:37.990Z,3.73
2019-05-10T16:40:07.777Z,4.40
2019-05-10T16:42:36.482Z,5.00
2019-05-10T16:45:06.748Z,4.50
2019-05-10T16:47:35.471Z,4.17
2019-05-10T16:50:06.120Z,3.57
2019-05-10T16:52:34.821Z,3.40
2019-05-10T16:55:05.466Z,4.30
2019-05-10T16:57:37.321Z,5.03
2019-05-10T17:00:10.353Z,4.03
2019-05-10T17:02:42.237Z,4.70
2019-05-10T17:05:15.330Z,4.60
2019-05-10T17:07:40.775Z,4.03
2019-05-10T17:10:09.778Z,4.50
2019-05-10T17:12:38.478Z,4.73
2019-05-10T17:15:07.661Z,4.93
2019-05-10T17:17:37.177Z,5.90
2019-05-10T17:20:14.042Z,3.40
2019-05-10T17:22:39.300Z,3.50
2019-05-10T17:25:08.967Z,3.97
2019-05-10T17:27:37.750Z,4.10
2019-05-10T17:30:07.839Z,4.07
2019-05-10T17:32:36.539Z,4.00
2019-05-10T17:35:07.711Z,4.70
2019-05-10T17:37:37.562Z,4.40
2019-05-10T17:40:10.036Z,4.23
2019-05-10T17:42:41.095Z,5.33
2019-05-10T17:45:09.647Z,4.30
2019-05-10T17:47:38.420Z,4.37
2019-05-10T17:50:09.180Z,5.20
2019-05-10T17:52:37.867Z,4.90
2019-05-10T17:55:16.004Z,5.10
2019-05-10T17:57:39.979Z,4.60
2019-05-10T18:00:11.118Z,5.00
2019-05-10T18:02:40.103Z,4.50
2019-05-10T18:05:09.301Z,4.23
2019-05-10T18:07:38.063Z,5.13
2019-05-10T18:10:08.343Z,4.50
2019-05-10T18:12:37.069Z,5.23
2019-05-10T18:15:09.046Z,5.50
2019-05-10T18:17:37.752Z,4.70
2019-05-10T18:20:07.821Z,5.63
2019-05-10T18:22:43.303Z,5.63
2019-05-10T18:25:07.471Z,5.37
2019-05-10T18:27:36.336Z,5.27
2019-05-10T18:30:06.728Z,6.07
2019-05-10T18:32:37.267Z,5.27
2019-05-10T18:35:14.406Z,5.10
2019-05-10T18:37:38.417Z,5.23
2019-05-10T18:40:07.954Z,4.40
2019-05-10T18:42:36.849Z,4.80
2019-05-10T18:45:08.646Z,5.20
2019-05-10T18:47:37.394Z,4.40
2019-05-10T18:50:06.475Z,4.40
2019-05-10T18:52:35.181Z,4.70
2019-05-10T18:55:04.623Z,4.60
2019-05-10T18:57:33.385Z,5.50
2019-05-10T19:00:03.091Z,4.03
2019-05-10T19:02:32.023Z,4.83
2019-05-10T19:05:00.804Z,5.20
2019-05-10T19:07:29.487Z,5.17
2019-05-10T19:09:58.581Z,5.23
2019-05-10T19:12:27.672Z,4.87
2019-05-10T19:14:56.542Z,4.60
2019-05-10T19:17:25.590Z,5.07
2019-05-10T19:19:55.175Z,5.27
2019-05-10T19:22:23.876Z,4.63
2019-05-10T19:24:56.755Z,5.00
2019-05-10T19:27:25.251Z,4.90
2019-05-10T19:29:53.702Z,4.90
2019-05-10T19:32:22.547Z,4.43
2019-05-10T19:34:57.180Z,4.90
2019-05-10T19:37:41.083Z,5.00
2019-05-10T19:40:10.101Z,5.00
2019-05-10T19:42:43.053Z,5.00
2019-05-10T19:45:12.915Z,4.67
2019-05-10T19:47:40.403Z,4.97
2019-05-10T19:50:09.752Z,4.40
2019-05-10T19:52:38.658Z,5.33
2019-05-10T19:55:07.747Z,5.97
2019-05-10T19:57:38.162Z,4.57
2019-05-10T20:00:08.466Z,5.20
2019-05-10T20:02:37.163Z,5.30
2019-05-10T20:05:06.190Z,5.33
2019-05-10T20:07:45.141Z,4.80
2019-05-10T20:10:07.846Z,5.57
2019-05-10T20:12:37.132Z,5.37
2019-05-10T20:15:07.957Z,5.17
2019-05-10T20:17:36.746Z,6.20
2019-05-10T20:20:09.091Z,5.60
2019-05-10T20:22:37.790Z,5.23
2019-05-10T20:25:07.247Z,5.73
2019-05-10T20:27:36.013Z,6.03
2019-05-10T20:30:06.195Z,5.30
2019-05-10T20:32:36.635Z,6.37
2019-05-10T20:35:08.012Z,6.27
2019-05-10T20:37:36.707Z,6.10
2019-05-10T20:40:08.230Z,6.63
2019-05-10T20:42:36.921Z,6.30
2019-05-10T20:45:08.393Z,6.40
2019-05-10T20:47:38.095Z,7.37
2019-05-10T20:50:08.249Z,6.93
2019-05-10T20:52:36.964Z,5.80
2019-05-10T20:55:06.408Z,6.00
2019-05-10T20:57:37.638Z,5.90
2019-05-10T21:00:07.042Z,7.03
2019-05-10T21:02:35.782Z,6.40
2019-05-10T21:05:06.504Z,5.43
2019-05-10T21:07:38.425Z,5.90
2019-05-10T21:10:07.398Z,6.27
2019-05-10T21:12:36.489Z,7.10
2019-05-10T21:15:07.558Z,6.37
2019-05-10T21:17:36.333Z,6.43
2019-05-10T21:20:07.741Z,6.03
2019-05-10T21:22:36.686Z,7.10
2019-05-10T21:25:09.673Z,7.10
2019-05-10T21:27:38.490Z,6.60
2019-05-10T21:30:08.922Z,7.67
2019-05-10T21:32:37.659Z,7.70
2019-05-10T21:35:06.326Z,8.13
2019-05-10T21:37:35.024Z,6.80
2019-05-10T21:40:07.051Z,7.23
2019-05-10T21:42:35.727Z,8.83
2019-05-10T21:45:04.850Z,7.90
2019-05-10T21:47:33.845Z,7.90
2019-05-10T21:50:02.576Z,8.00
2019-05-10T21:52:31.257Z,7.53
2019-05-10T21:55:00.115Z,8.77
2019-05-10T21:57:28.928Z,8.03
2019-05-10T21:59:57.629Z,7.40
2019-05-10T22:02:26.390Z,8.50
2019-05-10T22:04:55.072Z,7.70
2019-05-10T22:07:23.792Z,10.37
2019-05-10T22:09:52.534Z,9.80
2019-05-10T22:12:21.574Z,9.67
2019-05-10T22:14:50.334Z,9.40
2019-05-10T22:17:20.234Z,8.50
2019-05-10T22:19:48.911Z,9.00
2019-05-10T22:22:17.709Z,8.70
2019-05-10T22:24:48.273Z,9.73
2019-05-10T22:27:17.009Z,9.00
2019-05-10T22:29:45.701Z,8.30
2019-05-10T22:32:14.360Z,8.33
2019-05-10T22:34:43.099Z,9.37
2019-05-10T22:37:11.950Z,10.53
2019-05-10T22:39:40.630Z,9.10
2019-05-10T22:42:09.350Z,10.00
2019-05-10T22:44:38.067Z,9.30
2019-05-10T22:47:06.984Z,8.77
2019-05-10T22:49:35.672Z,9.57
2019-05-10T22:52:04.432Z,9.63
2019-05-10T22:54:33.108Z,9.43
2019-05-10T22:57:01.830Z,10.23
2019-05-10T22:59:30.588Z,8.93
2019-05-10T23:01:59.285Z,9.10
2019-05-10T23:04:27.982Z,8.83
2019-05-10T23:06:56.690Z,10.03
2019-05-10T23:09:25.444Z,8.90
2019-05-10T23:11:54.180Z,10.33
2019-05-10T23:14:22.938Z,10.80
2019-05-10T23:16:51.638Z,10.17
2019-05-10T23:19:20.485Z,9.80
2019-05-10T23:21:49.156Z,10.00
2019-05-10T23:24:17.869Z,11.60
2019-05-10T23:26:46.620Z,12.07
2019-05-10T23:29:15.318Z,13.00
2019-05-10T23:31:44.019Z,10.07
2019-05-10T23:34:12.998Z,10.93
2019-05-10T23:36:41.797Z,9.90
2019-05-10T23:39:10.523Z,10.50
2019-05-10T23:41:39.216Z,10.30
2019-05-10T23:44:07.922Z,9.73
2019-05-10T23:46:36.629Z,9.60
2019-05-10T23:49:05.326Z,8.67
2019-05-10T23:51:34.315Z,9.83
2019-05-10T23:54:03.033Z,9.60
2019-05-10T23:56:31.771Z,10.63
2019-05-10T23:59:00.581Z,9.23
